Time;durP1;ratioP1;P1;durP2;ratioP2;P2;SDS_P1;SDS_P2;PMS_P1;PMS_P2;Temp;Humidity;BMP_temperature;BMP_pressure;BME280_temperature;BME280_humidity;BME280_pressure;Samples;Min_cycle;Max_cycle;Signal;HPM_P1;HPM_P2
2023/12/28 00:00:30;;;;;;;11.65;7.88;;;4.50;99.90;;;;;;4898795;29;20040;-75
2023/12/28 00:02:56;;;;;;;12.85;7.82;;;4.50;99.90;;;;;;4901817;29;20024;-74
2023/12/28 00:05:22;;;;;;;13.25;7.40;;;4.40;99.90;;;;;;4900791;29;20079;-75
2023/12/28 00:07:47;;;;;;;11.18;7.30;;;4.30;99.90;;;;;;4899499;29;20032;-75
2023/12/28 00:10:13;;;;;;;11.95;7.35;;;4.30;99.90;;;;;;4900703;29;20040;-74
2023/12/28 00:12:39;;;;;;;14.00;7.32;;;4.30;99.90;;;;;;4901079;29;20070;-75
2023/12/28 00:15:05;;;;;;;11.07;7.45;;;4.40;99.90;;;;;;4900701;29;20066;-74
2023/12/28 00:17:30;;;;;;;10.80;6.75;;;4.40;99.90;;;;;;4899145;29;20036;-74
2023/12/28 00:19:56;;;;;;;10.70;6.72;;;4.30;99.90;;;;;;4900628;29;20063;-74
2023/12/28 00:22:22;;;;;;;14.13;7.88;;;4.30;99.90;;;;;;4900648;29;20032;-73
2023/12/28 00:24:48;;;;;;;10.55;7.18;;;4.20;99.90;;;;;;4900586;29;20063;-74
2023/12/28 00:27:13;;;;;;;15.23;7.32;;;4.20;99.90;;;;;;4900739;29;20039;-74
2023/12/28 00:29:41;;;;;;;15.18;9.02;;;4.30;99.90;;;;;;4900297;29;20050;-74
2023/12/28 00:32:07;;;;;;;11.55;7.57;;;4.30;99.90;;;;;;4902663;29;20095;-74
2023/12/28 00:34:32;;;;;;;14.73;7.95;;;4.30;99.90;;;;;;4905148;29;20518;-74
2023/12/28 00:36:58;;;;;;;12.70;6.88;;;4.40;99.90;;;;;;4905918;29;20040;-74
2023/12/28 00:39:24;;;;;;;11.70;7.28;;;4.40;99.90;;;;;;4905315;29;20028;-74
2023/12/28 00:41:49;;;;;;;16.70;7.40;;;4.30;99.90;;;;;;4907072;29;20137;-74
2023/12/28 00:44:15;;;;;;;13.05;7.80;;;4.20;99.90;;;;;;4904792;29;20043;-72
2023/12/28 00:46:41;;;;;;;12.15;7.40;;;4.20;99.90;;;;;;4906533;29;20077;-73
2023/12/28 00:49:08;;;;;;;12.43;7.15;;;4.10;99.90;;;;;;4906097;29;20046;-73
2023/12/28 00:51:34;;;;;;;12.10;7.93;;;4.10;99.90;;;;;;4904841;29;20760;-73
2023/12/28 00:53:59;;;;;;;12.32;7.30;;;4.10;99.90;;;;;;4904320;29;20124;-74
2023/12/28 00:56:25;;;;;;;13.13;8.50;;;4.00;99.90;;;;;;4903935;29;20199;-74
2023/12/28 00:58:51;;;;;;;14.70;8.25;;;4.00;99.90;;;;;;4904666;29;20028;-73
2023/12/28 01:01:16;;;;;;;11.80;7.53;;;3.90;99.90;;;;;;4904835;29;20032;-74
2023/12/28 01:03:42;;;;;;;12.60;7.70;;;3.90;99.90;;;;;;4906037;29;20047;-74
2023/12/28 01:06:08;;;;;;;13.05;7.15;;;3.90;99.90;;;;;;4905249;29;20174;-73
2023/12/28 01:08:33;;;;;;;12.40;7.45;;;3.90;99.90;;;;;;4903791;29;20143;-73
2023/12/28 01:11:00;;;;;;;16.83;8.15;;;3.80;99.90;;;;;;4906930;29;20079;-74
2023/12/28 01:13:26;;;;;;;13.50;8.50;;;3.80;99.90;;;;;;4903914;29;20688;-74
2023/12/28 01:15:51;;;;;;;12.70;7.63;;;3.90;99.90;;;;;;4903743;29;20036;-74
2023/12/28 01:18:17;;;;;;;12.07;7.47;;;3.80;99.90;;;;;;4904725;29;20071;-74
2023/12/28 01:20:43;;;;;;;11.88;7.78;;;3.80;99.90;;;;;;4905012;29;20067;-73
2023/12/28 01:23:08;;;;;;;11.90;7.45;;;3.90;99.90;;;;;;4905852;29;20032;-73
2023/12/28 01:25:35;;;;;;;13.23;7.93;;;4.00;99.90;;;;;;4904923;29;20774;-74
2023/12/28 01:28:01;;;;;;;12.75;7.43;;;4.00;99.90;;;;;;4904243;29;20063;-73
2023/12/28 01:30:27;;;;;;;10.55;7.22;;;4.00;99.90;;;;;;4904745;29;20074;-74
2023/12/28 01:32:52;;;;;;;12.90;7.22;;;4.10;99.90;;;;;;4907736;29;20035;-73
2023/12/28 01:35:18;;;;;;;11.93;7.80;;;4.10;99.90;;;;;;4908787;29;20071;-73
2023/12/28 01:37:44;;;;;;;14.45;8.50;;;4.10;99.90;;;;;;4905422;29;20418;-73
2023/12/28 01:40:10;;;;;;;14.00;7.57;;;4.00;99.90;;;;;;4904260;29;20035;-73
2023/12/28 01:42:35;;;;;;;13.35;8.05;;;4.10;99.90;;;;;;4904375;29;20036;-73
2023/12/28 01:45:01;;;;;;;11.60;7.28;;;4.20;99.90;;;;;;4907185;29;20075;-73
2023/12/28 01:47:28;;;;;;;11.50;7.05;;;4.20;99.90;;;;;;4905998;29;20123;-72
2023/12/28 01:49:55;;;;;;;11.02;6.90;;;4.10;99.90;;;;;;4909225;29;20547;-73
2023/12/28 01:52:21;;;;;;;11.23;7.20;;;4.10;99.90;;;;;;4906071;29;20391;-73
2023/12/28 01:54:47;;;;;;;11.32;7.15;;;4.20;99.90;;;;;;4906779;29;20036;-73
2023/12/28 01:57:14;;;;;;;14.18;6.80;;;4.10;99.90;;;;;;4906066;29;20036;-73
2023/12/28 01:59:41;;;;;;;13.73;9.15;;;4.10;99.90;;;;;;4906135;29;20719;-73
2023/12/28 02:02:07;;;;;;;13.93;8.75;;;4.00;99.90;;;;;;4902349;29;20059;-73
2023/12/28 02:04:33;;;;;;;11.95;7.63;;;4.00;99.90;;;;;;4905194;29;20035;-73
2023/12/28 02:07:00;;;;;;;11.70;8.18;;;3.90;99.90;;;;;;4907150;29;20028;-73
2023/12/28 02:09:26;;;;;;;11.27;6.70;;;3.90;99.90;;;;;;4903252;29;20050;-73
2023/12/28 02:11:53;;;;;;;13.15;7.40;;;3.90;99.90;;;;;;4904115;29;20562;-73
2023/12/28 02:14:20;;;;;;;11.38;7.03;;;4.00;99.90;;;;;;4903708;29;20114;-73
2023/12/28 02:17:12;;;;;;;10.35;6.82;;;4.00;99.90;;;;;;4902947;29;20452;-73
2023/12/28 02:19:49;;;;;;;11.38;7.28;;;4.00;99.90;;;;;;4903938;29;20261;-73
2023/12/28 02:22:16;;;;;;;12.27;6.47;;;4.00;99.90;;;;;;4907669;29;20024;-73
2023/12/28 02:25:07;;;;;;;12.02;6.45;;;4.10;99.90;;;;;;4904758;29;20391;-73
2023/12/28 02:27:44;;;;;;;10.02;6.60;;;4.20;99.90;;;;;;4902658;29;20020;-73
2023/12/28 02:30:17;;;;;;;13.15;7.30;;;4.10;99.90;;;;;;4903573;29;20151;-73
2023/12/28 02:33:04;;;;;;;11.73;6.95;;;4.10;99.90;;;;;;4903265;29;20037;-73
2023/12/28 02:35:57;;;;;;;11.73;6.50;;;4.20;99.90;;;;;;4903660;29;20167;-73
2023/12/28 02:38:24;;;;;;;8.88;6.22;;;4.20;99.90;;;;;;4904335;29;20055;-73
2023/12/28 02:40:50;;;;;;;12.80;6.70;;;4.30;99.90;;;;;;4905816;29;20050;-73
2023/12/28 02:43:16;;;;;;;12.25;7.47;;;4.20;99.90;;;;;;4905581;29;20032;-73
2023/12/28 02:45:42;;;;;;;11.32;7.30;;;4.00;99.90;;;;;;4907910;29;20141;-74
2023/12/28 02:48:08;;;;;;;11.88;6.95;;;4.00;99.90;;;;;;4906034;29;20044;-74
2023/12/28 02:50:35;;;;;;;10.88;6.35;;;4.00;99.90;;;;;;4907026;29;20062;-73
2023/12/28 02:53:01;;;;;;;11.63;7.13;;;4.00;99.90;;;;;;4906352;29;20414;-73
2023/12/28 02:55:26;;;;;;;10.88;6.63;;;4.00;99.90;;;;;;4906175;29;20036;-73
2023/12/28 02:57:54;;;;;;;10.50;7.22;;;4.00;99.90;;;;;;4907203;29;20032;-72
2023/12/28 03:00:20;;;;;;;11.98;7.07;;;4.00;99.90;;;;;;4908107;29;20064;-73
2023/12/28 03:02:46;;;;;;;11.07;6.22;;;4.00;99.90;;;;;;4906759;29;20106;-73
2023/12/28 03:05:12;;;;;;;13.60;6.88;;;4.10;99.90;;;;;;4906609;29;20047;-73
2023/12/28 03:07:38;;;;;;;9.68;5.75;;;4.10;99.90;;;;;;4907026;29;20036;-73
2023/12/28 03:10:04;;;;;;;12.63;6.43;;;4.10;99.90;;;;;;4908768;29;20044;-73
2023/12/28 03:12:30;;;;;;;10.98;6.43;;;4.10;99.90;;;;;;4907137;29;20132;-73
2023/12/28 03:14:56;;;;;;;11.65;6.32;;;4.10;99.90;;;;;;4914259;29;20110;-73
2023/12/28 03:17:22;;;;;;;10.73;6.30;;;4.10;99.90;;;;;;4908603;29;20032;-72
2023/12/28 03:19:47;;;;;;;10.82;6.47;;;4.00;99.90;;;;;;4908366;29;20126;-72
2023/12/28 03:22:13;;;;;;;13.25;6.47;;;4.00;99.90;;;;;;4907509;29;20044;-73
2023/12/28 03:24:40;;;;;;;11.15;6.47;;;4.00;99.90;;;;;;4906226;29;20117;-73
2023/12/28 03:27:06;;;;;;;12.15;6.72;;;4.00;99.90;;;;;;4906382;29;20059;-72
2023/12/28 03:29:31;;;;;;;9.18;5.40;;;4.00;99.90;;;;;;4908663;29;20051;-73
2023/12/28 03:31:57;;;;;;;9.32;6.47;;;3.80;99.90;;;;;;4906360;29;20032;-72
2023/12/28 03:34:23;;;;;;;10.73;6.68;;;3.80;99.90;;;;;;4906085;29;20178;-73
2023/12/28 03:36:50;;;;;;;12.98;6.88;;;3.70;99.90;;;;;;4906679;29;20036;-73
2023/12/28 03:39:15;;;;;;;11.60;7.45;;;3.70;99.90;;;;;;4906416;29;20130;-73
2023/12/28 03:41:41;;;;;;;13.10;6.28;;;3.80;99.90;;;;;;4905206;29;20543;-73
2023/12/28 03:44:06;;;;;;;11.90;5.55;;;3.90;99.90;;;;;;4906665;29;20107;-73
2023/12/28 03:46:32;;;;;;;11.80;5.95;;;3.90;99.90;;;;;;4909651;29;20071;-73
2023/12/28 03:48:58;;;;;;;11.52;6.32;;;3.90;99.90;;;;;;4909341;29;20039;-72
2023/12/28 03:51:24;;;;;;;10.93;6.90;;;4.00;99.90;;;;;;4910209;29;20032;-73
2023/12/28 03:53:49;;;;;;;11.13;6.32;;;4.00;99.90;;;;;;4905532;29;20062;-72
2023/12/28 03:56:25;;;;;;;9.23;5.60;;;4.00;99.90;;;;;;4905594;29;20033;-72
2023/12/28 03:58:52;;;;;;;9.80;6.07;;;3.90;99.90;;;;;;4909141;29;20072;-73
2023/12/28 04:01:19;;;;;;;10.05;5.60;;;3.70;99.90;;;;;;4905550;29;20115;-73
2023/12/28 04:03:45;;;;;;;10.60;6.60;;;3.70;99.90;;;;;;4903004;29;20166;-73
2023/12/28 04:06:12;;;;;;;12.82;6.60;;;3.70;99.90;;;;;;4901028;29;20028;-73
2023/12/28 04:08:41;;;;;;;8.93;6.25;;;3.80;99.90;;;;;;4900770;29;20403;-73
2023/12/28 04:11:07;;;;;;;9.35;5.78;;;4.00;99.90;;;;;;4900470;29;20040;-73
2023/12/28 04:13:33;;;;;;;11.32;6.38;;;4.00;99.90;;;;;;4899918;29;20036;-73
2023/12/28 04:15:59;;;;;;;9.48;6.63;;;4.00;99.90;;;;;;4900169;29;20411;-73
2023/12/28 04:18:24;;;;;;;9.38;6.00;;;3.90;99.90;;;;;;4897949;29;20138;-73
2023/12/28 04:20:50;;;;;;;11.00;5.85;;;3.80;99.90;;;;;;4897786;29;20067;-74
2023/12/28 04:23:16;;;;;;;9.05;6.25;;;3.80;99.90;;;;;;4898467;29;20115;-73
2023/12/28 04:25:41;;;;;;;9.95;6.03;;;3.90;99.90;;;;;;4900648;29;20091;-73
2023/12/28 04:28:07;;;;;;;9.20;5.47;;;3.80;99.90;;;;;;4901540;29;20349;-73
2023/12/28 04:30:33;;;;;;;13.82;6.43;;;3.80;99.90;;;;;;4884381;29;20036;-73
2023/12/28 04:33:00;;;;;;;11.13;6.95;;;3.90;99.90;;;;;;4901170;29;20040;-73
2023/12/28 04:35:25;;;;;;;10.32;5.90;;;4.00;99.90;;;;;;4902505;29;20107;-73
2023/12/28 04:37:51;;;;;;;10.25;6.18;;;4.00;99.90;;;;;;4900276;29;22400;-73
2023/12/28 04:40:17;;;;;;;11.52;6.45;;;4.00;99.90;;;;;;4900912;29;20466;-73
2023/12/28 04:42:43;;;;;;;12.15;6.38;;;4.10;99.90;;;;;;4901549;29;20028;-73
2023/12/28 04:45:12;;;;;;;10.80;6.38;;;3.90;99.90;;;;;;4899693;29;20123;-73
2023/12/28 04:47:38;;;;;;;10.00;6.13;;;3.70;99.90;;;;;;4901007;29;20099;-73
2023/12/28 04:50:05;;;;;;;11.70;6.68;;;3.60;99.90;;;;;;4900485;29;20131;-73
2023/12/28 04:52:31;;;;;;;10.00;5.50;;;3.80;99.90;;;;;;4900823;29;20123;-73
2023/12/28 04:54:57;;;;;;;9.00;5.85;;;3.90;99.90;;;;;;4901482;29;20043;-73
2023/12/28 04:57:27;;;;;;;11.45;6.13;;;4.00;99.90;;;;;;4900392;29;20040;-73
2023/12/28 04:59:53;;;;;;;12.32;6.38;;;3.70;99.90;;;;;;4897247;29;20035;-73
2023/12/28 05:02:19;;;;;;;12.95;5.75;;;3.60;99.90;;;;;;4897671;29;20046;-74
2023/12/28 05:04:45;;;;;;;9.20;6.03;;;3.70;99.90;;;;;;4897990;29;20034;-74
2023/12/28 05:07:10;;;;;;;9.93;5.78;;;3.70;99.90;;;;;;4896935;29;20040;-73
2023/12/28 05:09:36;;;;;;;10.25;6.40;;;3.60;99.90;;;;;;4896847;29;21371;-73
2023/12/28 05:12:02;;;;;;;8.98;5.43;;;3.70;99.90;;;;;;4897169;29;20046;-74
2023/12/28 05:14:28;;;;;;;8.60;5.40;;;3.80;99.90;;;;;;4897707;29;20402;-73
2023/12/28 05:16:54;;;;;;;10.80;5.78;;;3.70;99.90;;;;;;4896344;29;20032;-73
2023/12/28 05:19:19;;;;;;;10.40;5.35;;;3.70;99.90;;;;;;4894954;29;20228;-74
2023/12/28 05:21:46;;;;;;;10.23;6.47;;;3.80;99.90;;;;;;4898255;29;20024;-73
2023/12/28 05:24:11;;;;;;;11.85;6.20;;;3.80;99.90;;;;;;4896924;29;20111;-73
2023/12/28 05:26:37;;;;;;;10.05;5.57;;;3.60;99.90;;;;;;4897670;29;20024;-73
2023/12/28 05:29:03;;;;;;;10.85;6.93;;;3.60;99.90;;;;;;4896197;29;20122;-73
2023/12/28 05:31:29;;;;;;;10.38;5.55;;;3.50;99.90;;;;;;4897153;29;20539;-74
2023/12/28 05:33:55;;;;;;;9.40;5.78;;;3.30;99.90;;;;;;4897681;29;20059;-73
2023/12/28 05:36:20;;;;;;;10.27;5.88;;;3.50;99.90;;;;;;4897718;29;20036;-73
2023/12/28 05:38:46;;;;;;;10.60;6.97;;;3.50;99.90;;;;;;4897920;29;20032;-73
2023/12/28 05:41:12;;;;;;;19.98;9.40;;;3.50;99.90;;;;;;4897064;29;20029;-73
2023/12/28 05:43:38;;;;;;;21.27;10.13;;;3.70;99.90;;;;;;4896785;29;20407;-74
2023/12/28 05:46:04;;;;;;;12.48;6.55;;;3.80;99.90;;;;;;4897096;29;21703;-73
2023/12/28 05:48:30;;;;;;;14.60;6.70;;;3.80;99.90;;;;;;4897388;29;20068;-73
2023/12/28 05:50:58;;;;;;;12.40;6.40;;;3.70;99.90;;;;;;4896342;29;20123;-73
2023/12/28 05:53:24;;;;;;;9.70;6.05;;;3.50;99.90;;;;;;4897731;29;21204;-73
2023/12/28 05:55:50;;;;;;;10.27;5.95;;;3.50;99.90;;;;;;4897341;29;20031;-73
2023/12/28 05:58:15;;;;;;;10.30;5.60;;;3.60;99.90;;;;;;4897480;29;20784;-74
2023/12/28 06:00:42;;;;;;;14.00;7.93;;;3.70;99.90;;;;;;4896625;29;20036;-73
2023/12/28 06:03:07;;;;;;;20.48;12.82;;;3.90;99.90;;;;;;4897338;29;20040;-73
2023/12/28 06:05:33;;;;;;;25.77;17.98;;;3.80;99.90;;;;;;4896943;29;20048;-73
2023/12/28 06:07:59;;;;;;;19.48;11.35;;;3.80;99.90;;;;;;4896024;29;20088;-73
2023/12/28 06:10:25;;;;;;;11.10;8.45;;;3.80;99.90;;;;;;4896882;29;20036;-73
2023/12/28 06:12:50;;;;;;;15.23;9.30;;;3.80;99.90;;;;;;4897040;29;20028;-73
2023/12/28 06:15:16;;;;;;;10.48;6.43;;;3.80;99.90;;;;;;4896781;29;20375;-74
2023/12/28 06:17:42;;;;;;;10.23;6.72;;;3.70;99.90;;;;;;4898037;29;20056;-73
2023/12/28 06:20:08;;;;;;;10.88;6.03;;;3.60;99.90;;;;;;4901105;29;20059;-73
2023/12/28 06:22:37;;;;;;;8.05;5.05;;;3.50;99.90;;;;;;4899187;29;20044;-73
2023/12/28 06:25:03;;;;;;;12.15;6.22;;;3.50;99.90;;;;;;4900115;29;20501;-73
2023/12/28 06:27:29;;;;;;;10.38;6.47;;;3.60;99.90;;;;;;4900380;29;20480;-73
2023/12/28 06:29:55;;;;;;;8.98;5.53;;;3.50;99.90;;;;;;4900046;29;20051;-73
2023/12/28 06:32:20;;;;;;;8.40;5.32;;;3.40;99.90;;;;;;4899283;29;20032;-73
2023/12/28 06:34:46;;;;;;;9.30;5.35;;;3.40;99.90;;;;;;4900287;29;20063;-74
2023/12/28 06:37:12;;;;;;;8.32;5.45;;;3.50;99.90;;;;;;4899892;29;20040;-73
2023/12/28 06:39:39;;;;;;;8.18;5.30;;;3.60;99.90;;;;;;4899461;29;20375;-73
2023/12/28 06:42:04;;;;;;;8.77;5.25;;;3.60;99.90;;;;;;4899841;29;20040;-73
2023/12/28 06:44:30;;;;;;;7.82;4.90;;;3.70;99.90;;;;;;4900382;29;20047;-73
2023/12/28 06:46:56;;;;;;;10.25;5.50;;;3.70;99.90;;;;;;4899166;29;20499;-73
2023/12/28 06:49:22;;;;;;;9.80;5.18;;;3.60;99.90;;;;;;4899472;29;20448;-73
2023/12/28 06:51:47;;;;;;;10.10;5.35;;;3.60;99.90;;;;;;4899237;29;20036;-73
2023/12/28 06:54:15;;;;;;;8.40;4.68;;;3.50;99.90;;;;;;4899616;29;20111;-73
2023/12/28 06:56:40;;;;;;;10.23;5.18;;;3.50;99.90;;;;;;4899770;29;20732;-73
2023/12/28 06:59:06;;;;;;;7.75;4.80;;;3.60;99.90;;;;;;4899607;29;20029;-73
2023/12/28 07:01:32;;;;;;;8.10;5.10;;;3.50;99.90;;;;;;4898790;29;20132;-73
2023/12/28 07:03:59;;;;;;;7.93;4.85;;;3.50;99.90;;;;;;4899152;29;20156;-73
2023/12/28 07:06:25;;;;;;;10.10;4.50;;;3.60;99.90;;;;;;4899963;29;21240;-74
2023/12/28 07:08:51;;;;;;;8.48;5.18;;;3.80;99.90;;;;;;4899014;29;20079;-73
2023/12/28 07:11:16;;;;;;;8.98;4.47;;;3.70;99.90;;;;;;4899474;29;20036;-73
2023/12/28 07:13:42;;;;;;;8.73;4.82;;;3.80;99.90;;;;;;4898568;29;20443;-73
2023/12/28 07:16:08;;;;;;;8.13;4.63;;;3.80;99.90;;;;;;4899080;29;20047;-73
2023/12/28 07:18:34;;;;;;;9.73;5.53;;;3.60;99.90;;;;;;4898703;29;20501;-73
2023/12/28 07:21:00;;;;;;;8.55;4.72;;;3.70;99.90;;;;;;4898330;29;20052;-73
2023/12/28 07:23:27;;;;;;;8.90;5.40;;;3.50;99.90;;;;;;4897842;29;20036;-73
2023/12/28 07:25:53;;;;;;;8.80;5.22;;;3.70;99.90;;;;;;4898702;29;20040;-74
2023/12/28 07:28:18;;;;;;;7.57;4.82;;;3.80;99.90;;;;;;4898914;29;20048;-73
2023/12/28 07:30:44;;;;;;;7.82;4.50;;;3.80;99.90;;;;;;4896963;29;20402;-73
2023/12/28 07:33:10;;;;;;;8.77;4.50;;;3.90;99.90;;;;;;4898391;29;20071;-73
2023/12/28 07:35:36;;;;;;;8.57;4.90;;;3.90;99.90;;;;;;4897965;29;20503;-73
2023/12/28 07:38:02;;;;;;;10.95;4.32;;;3.80;99.90;;;;;;4898333;29;20038;-73
2023/12/28 07:40:28;;;;;;;8.55;5.05;;;3.80;99.90;;;;;;4898959;29;20036;-73
2023/12/28 07:42:54;;;;;;;10.82;5.22;;;3.90;99.90;;;;;;4898667;29;20098;-74
2023/12/28 07:45:23;;;;;;;8.90;5.25;;;3.90;99.90;;;;;;4898549;29;20028;-74
2023/12/28 07:47:50;;;;;;;10.18;5.25;;;3.80;99.90;;;;;;4898867;29;20080;-73
2023/12/28 07:50:16;;;;;;;8.77;4.72;;;3.90;99.90;;;;;;4901223;29;20044;-73
2023/12/28 07:52:42;;;;;;;9.52;5.20;;;3.90;99.90;;;;;;4900856;29;20047;-73
2023/12/28 07:55:09;;;;;;;8.48;4.63;;;4.00;99.90;;;;;;4900869;29;20040;-73
2023/12/28 07:57:36;;;;;;;7.70;4.00;;;4.00;99.90;;;;;;4901498;29;20038;-72
2023/12/28 08:00:02;;;;;;;8.40;4.40;;;3.90;99.90;;;;;;4901800;29;20028;-74
2023/12/28 08:02:28;;;;;;;8.90;4.32;;;4.10;99.90;;;;;;4901444;29;20450;-74
2023/12/28 08:04:53;;;;;;;9.02;5.28;;;4.30;99.90;;;;;;4901791;29;20124;-74
2023/12/28 08:07:19;;;;;;;7.40;4.32;;;4.30;99.90;;;;;;4901626;29;20051;-74
2023/12/28 08:09:45;;;;;;;8.38;5.22;;;4.30;99.90;;;;;;4901195;29;20040;-74
2023/12/28 08:12:10;;;;;;;6.40;4.45;;;4.40;99.90;;;;;;4901315;29;20040;-74
2023/12/28 08:14:36;;;;;;;9.68;5.28;;;4.40;99.90;;;;;;4901367;29;20122;-74
2023/12/28 08:17:01;;;;;;;11.90;5.00;;;4.20;99.90;;;;;;4901385;29;20058;-74
2023/12/28 08:19:27;;;;;;;8.77;5.20;;;4.00;99.90;;;;;;4901086;29;20133;-74
2023/12/28 08:21:53;;;;;;;7.95;5.22;;;3.90;99.90;;;;;;4901899;29;20184;-73
2023/12/28 08:24:18;;;;;;;9.20;4.78;;;4.00;99.90;;;;;;4901179;29;20036;-74
2023/12/28 08:26:44;;;;;;;9.20;5.43;;;3.90;99.90;;;;;;4900180;29;20618;-74
2023/12/28 08:29:10;;;;;;;8.68;5.05;;;3.90;99.90;;;;;;4900834;29;20391;-74
2023/12/28 08:31:35;;;;;;;9.32;5.18;;;3.90;99.90;;;;;;4901155;29;20112;-74
2023/12/28 08:34:01;;;;;;;9.77;5.15;;;3.80;99.90;;;;;;4897462;29;20106;-74
2023/12/28 08:36:26;;;;;;;13.20;5.65;;;3.70;99.90;;;;;;4897053;29;20536;-74
2023/12/28 08:38:52;;;;;;;8.93;5.22;;;3.60;99.90;;;;;;4897913;29;20032;-74
2023/12/28 08:41:23;;;;;;;10.02;5.18;;;3.70;99.90;;;;;;4896917;29;20491;-74
2023/12/28 08:43:50;;;;;;;9.45;5.22;;;3.80;99.90;;;;;;4882521;29;20438;-74
2023/12/28 08:46:16;;;;;;;10.38;5.53;;;3.80;99.90;;;;;;4899713;29;21120;-74
2023/12/28 08:48:42;;;;;;;9.75;5.38;;;4.10;99.90;;;;;;4900893;29;20048;-74
2023/12/28 08:51:10;;;;;;;9.50;5.20;;;4.10;99.90;;;;;;4899503;29;20664;-74
2023/12/28 08:53:35;;;;;;;7.93;4.65;;;4.20;99.90;;;;;;4899240;29;20044;-74
2023/12/28 08:56:02;;;;;;;13.43;6.03;;;4.20;99.90;;;;;;4900084;29;20028;-74
2023/12/28 08:58:27;;;;;;;11.80;5.72;;;4.20;99.90;;;;;;4899962;29;20243;-74
2023/12/28 09:00:53;;;;;;;8.90;5.72;;;4.20;99.90;;;;;;4900473;29;20095;-74
2023/12/28 09:03:19;;;;;;;12.82;6.57;;;4.20;99.90;;;;;;4899887;29;20589;-74
2023/12/28 09:05:44;;;;;;;10.02;6.30;;;4.20;99.90;;;;;;4882715;29;20068;-74
2023/12/28 09:08:10;;;;;;;9.32;6.57;;;4.20;99.90;;;;;;4900177;29;20043;-74
2023/12/28 09:10:36;;;;;;;12.05;7.45;;;4.10;99.90;;;;;;4901180;29;20615;-74
2023/12/28 09:13:05;;;;;;;11.63;7.30;;;4.30;99.90;;;;;;4899675;29;20036;-74
2023/12/28 09:15:31;;;;;;;11.93;6.72;;;4.40;99.90;;;;;;4896821;29;20024;-74
2023/12/28 09:17:57;;;;;;;11.40;6.57;;;4.50;99.90;;;;;;4899692;29;20075;-74
2023/12/28 09:20:22;;;;;;;15.43;10.63;;;4.50;99.90;;;;;;4898471;29;20059;-73
2023/12/28 09:22:53;;;;;;;14.23;9.25;;;4.40;99.90;;;;;;4898656;29;20035;-74
2023/12/28 09:25:19;;;;;;;21.15;12.95;;;4.50;99.90;;;;;;4897328;29;20123;-74
2023/12/28 09:27:45;;;;;;;16.77;9.77;;;4.40;99.90;;;;;;4897007;29;20038;-74
2023/12/28 09:30:11;;;;;;;12.98;8.55;;;4.50;99.90;;;;;;4896374;29;20057;-74
2023/12/28 09:32:37;;;;;;;13.38;8.80;;;4.60;99.90;;;;;;4896839;29;20048;-74
2023/12/28 09:35:03;;;;;;;17.10;10.05;;;4.60;99.90;;;;;;4897013;29;20040;-73
2023/12/28 09:37:28;;;;;;;12.85;7.18;;;4.60;99.90;;;;;;4897364;29;20044;-74
2023/12/28 09:39:54;;;;;;;9.65;7.07;;;4.60;99.90;;;;;;4900321;29;20047;-73
2023/12/28 09:42:32;;;;;;;13.45;6.20;;;4.60;99.90;;;;;;4894472;29;20083;-74
2023/12/28 09:44:58;;;;;;;11.23;5.60;;;4.40;99.90;;;;;;4895810;29;20032;-74
2023/12/28 09:47:24;;;;;;;11.50;5.70;;;4.30;99.90;;;;;;4896124;29;20111;-74
2023/12/28 09:49:50;;;;;;;12.15;7.03;;;4.40;99.90;;;;;;4902467;29;20147;-74
2023/12/28 09:52:15;;;;;;;16.80;7.30;;;4.60;99.90;;;;;;4895342;29;21041;-73
2023/12/28 09:54:41;;;;;;;17.10;7.78;;;4.60;99.90;;;;;;4900689;29;20043;-74
2023/12/28 09:57:07;;;;;;;12.20;6.78;;;4.60;99.90;;;;;;4900113;29;20380;-73
2023/12/28 09:59:33;;;;;;;8.27;5.68;;;4.70;99.90;;;;;;4900775;29;20032;-74
2023/12/28 10:02:01;;;;;;;8.88;5.25;;;4.60;99.90;;;;;;4900408;29;20443;-73
2023/12/28 10:04:29;;;;;;;9.38;5.68;;;4.40;99.90;;;;;;4899763;29;20032;-74
2023/12/28 10:06:54;;;;;;;11.38;6.32;;;4.50;99.90;;;;;;4900528;29;20036;-74
2023/12/28 10:09:21;;;;;;;11.77;6.05;;;4.60;99.90;;;;;;4899785;29;20052;-74
2023/12/28 10:11:47;;;;;;;10.15;6.03;;;4.70;99.90;;;;;;4900147;29;20283;-73
2023/12/28 10:14:13;;;;;;;7.93;4.68;;;4.80;99.90;;;;;;4900019;29;20024;-74
2023/12/28 10:16:42;;;;;;;10.82;6.10;;;4.90;99.90;;;;;;4898556;29;20071;-74
2023/12/28 10:19:07;;;;;;;8.57;5.20;;;5.00;99.90;;;;;;4899221;29;20487;-74
2023/12/28 10:21:34;;;;;;;9.05;5.00;;;5.00;99.90;;;;;;4900612;29;20068;-73
2023/12/28 10:24:00;;;;;;;7.85;5.18;;;5.00;99.90;;;;;;4900600;29;20039;-73
2023/12/28 10:26:27;;;;;;;9.15;5.32;;;5.00;99.90;;;;;;4899740;29;20395;-74
2023/12/28 10:29:03;;;;;;;20.98;9.07;;;4.90;99.90;;;;;;4881126;29;20048;-74
2023/12/28 10:31:29;;;;;;;28.55;15.02;;;4.90;99.90;;;;;;4898156;29;20087;-74
2023/12/28 10:33:59;;;;;;;11.90;6.63;;;4.90;99.90;;;;;;4899570;29;20506;-74
2023/12/28 10:36:27;;;;;;;9.13;5.00;;;4.80;99.90;;;;;;4899589;29;21038;-74
2023/12/28 10:38:54;;;;;;;11.93;5.80;;;4.90;99.90;;;;;;4898874;29;20047;-75
2023/12/28 10:41:21;;;;;;;9.75;4.82;;;5.00;99.90;;;;;;4899389;29;20067;-75
2023/12/28 10:43:52;;;;;;;9.80;4.90;;;5.10;99.90;;;;;;4899713;29;20032;-74
2023/12/28 10:46:27;;;;;;;10.63;6.47;;;5.10;99.90;;;;;;4899717;29;20036;-74
2023/12/28 10:48:59;;;;;;;10.02;5.85;;;5.00;99.90;;;;;;4898401;29;20059;-74
2023/12/28 10:51:27;;;;;;;10.55;6.35;;;5.00;99.90;;;;;;4899332;29;20092;-74
2023/12/28 10:54:12;;;;;;;9.65;5.50;;;4.90;99.90;;;;;;4899259;29;20035;-75
2023/12/28 10:56:55;;;;;;;10.50;6.35;;;5.10;99.90;;;;;;4899020;29;20291;-74
2023/12/28 10:59:53;;;;;;;12.55;8.45;;;5.00;99.90;;;;;;4899648;29;20602;-73
2023/12/28 11:02:25;;;;;;;10.82;6.15;;;5.10;99.90;;;;;;4899311;29;20066;-75
2023/12/28 11:04:52;;;;;;;9.55;6.78;;;5.10;99.90;;;;;;4903065;29;20039;-73
2023/12/28 11:07:18;;;;;;;11.25;8.95;;;5.10;99.90;;;;;;4898110;29;20035;-73
2023/12/28 11:09:45;;;;;;;11.20;7.00;;;5.20;99.90;;;;;;4898726;29;20072;-73
2023/12/28 11:12:11;;;;;;;8.95;5.68;;;5.10;99.90;;;;;;4899592;29;20048;-73
2023/12/28 11:14:41;;;;;;;11.60;7.28;;;5.00;99.90;;;;;;4899058;29;20501;-73
2023/12/28 11:17:09;;;;;;;13.15;6.63;;;5.10;99.90;;;;;;4898282;29;20035;-72
2023/12/28 11:19:36;;;;;;;11.07;6.15;;;5.20;99.90;;;;;;4900041;29;20063;-73
2023/12/28 11:22:03;;;;;;;11.38;6.30;;;5.20;99.90;;;;;;4898148;29;20040;-74
2023/12/28 11:24:30;;;;;;;10.90;4.95;;;5.20;99.90;;;;;;4897539;29;20088;-74
2023/12/28 11:26:56;;;;;;;10.40;5.72;;;5.20;99.90;;;;;;4897181;29;20032;-73
2023/12/28 11:29:26;;;;;;;11.02;5.97;;;5.20;99.90;;;;;;4896825;29;20036;-74
2023/12/28 11:31:57;;;;;;;9.50;5.78;;;5.20;99.90;;;;;;4898172;29;20039;-73
2023/12/28 11:34:29;;;;;;;8.38;6.10;;;5.10;99.90;;;;;;4897884;29;20044;-74
2023/12/28 11:36:57;;;;;;;7.40;5.05;;;5.20;99.90;;;;;;4895836;29;20040;-74
2023/12/28 11:39:34;;;;;;;10.23;4.95;;;5.30;99.90;;;;;;4896976;29;20036;-73
2023/12/28 11:42:08;;;;;;;10.40;5.22;;;5.20;99.90;;;;;;4897854;29;20637;-73
2023/12/28 11:44:44;;;;;;;7.22;4.50;;;5.30;99.90;;;;;;4896810;29;20188;-73
2023/12/28 11:47:16;;;;;;;8.88;5.15;;;5.40;99.90;;;;;;4896983;29;20040;-73
2023/12/28 11:49:45;;;;;;;9.77;5.72;;;5.50;99.90;;;;;;4896708;29;20048;-74
2023/12/28 11:52:21;;;;;;;9.73;4.88;;;5.50;99.90;;;;;;4896532;29;20047;-73
2023/12/28 11:54:50;;;;;;;11.23;4.82;;;5.60;99.90;;;;;;4897368;29;20509;-73
2023/12/28 11:57:16;;;;;;;8.02;5.15;;;5.70;99.90;;;;;;4896555;29;20504;-74
2023/12/28 11:59:42;;;;;;;213.77;157.27;;;5.50;99.90;;;;;;4880231;29;20048;-73
2023/12/28 12:02:08;;;;;;;79.65;51.17;;;5.50;99.90;;;;;;4897311;29;20043;-74
2023/12/28 12:04:34;;;;;;;44.03;31.48;;;5.40;99.90;;;;;;4897249;29;20036;-73
2023/12/28 12:07:04;;;;;;;31.90;20.13;;;5.60;99.90;;;;;;4897300;29;20530;-73
2023/12/28 12:09:34;;;;;;;20.40;13.38;;;5.60;99.90;;;;;;4897138;29;20044;-73
2023/12/28 12:12:01;;;;;;;15.00;9.95;;;5.60;99.90;;;;;;4896955;29;20120;-73
2023/12/28 12:14:28;;;;;;;15.55;7.95;;;5.70;99.90;;;;;;4896899;29;20044;-73
2023/12/28 12:16:56;;;;;;;14.75;6.68;;;5.60;99.90;;;;;;4896836;29;20083;-74
2023/12/28 12:19:23;;;;;;;11.25;7.28;;;5.70;99.90;;;;;;4858805;29;1142818;-74
2023/12/28 12:21:49;;;;;;;9.07;5.82;;;5.80;99.90;;;;;;4898393;29;20051;-74
2023/12/28 12:24:17;;;;;;;11.65;6.40;;;5.60;99.90;;;;;;4896945;29;20024;-74
2023/12/28 12:26:43;;;;;;;8.88;5.07;;;5.80;99.90;;;;;;4897067;29;20036;-74
2023/12/28 12:29:09;;;;;;;8.98;5.15;;;5.70;99.90;;;;;;4897378;29;20580;-74
2023/12/28 12:31:37;;;;;;;9.70;5.72;;;5.80;99.90;;;;;;4895958;29;20600;-74
2023/12/28 12:34:03;;;;;;;12.90;5.50;;;5.80;99.90;;;;;;4896724;29;20067;-73
2023/12/28 12:36:29;;;;;;;9.40;5.25;;;6.00;99.90;;;;;;4898095;29;20131;-74
2023/12/28 12:38:54;;;;;;;8.88;5.53;;;6.00;99.90;;;;;;4897177;29;20411;-74
2023/12/28 12:41:20;;;;;;;12.48;5.90;;;6.00;99.90;;;;;;4898519;29;20036;-73
2023/12/28 12:43:46;;;;;;;12.32;5.75;;;5.90;99.90;;;;;;4896342;29;20732;-75
2023/12/28 12:46:12;;;;;;;9.00;5.57;;;5.90;99.90;;;;;;4897652;29;20609;-73
2023/12/28 12:48:39;;;;;;;12.70;6.45;;;6.00;99.90;;;;;;4896971;29;20127;-74